• Join FlightAware (Why Join?)
  • Login
  • US Flag 
10:10AM EDT


 

Airport Tracker/Info


-or-


 

Live Flight TrackerFlight Track Log ✈ SKW4664 ✈ 18-Jul-2013 ✈ KFSD - KMSP

Flight Track Log - Related Links

Times and Time Zones

All times are in EDT time to prevent confusion due to time zone crossing. See the SKW4664 flight status page for this flight to view local times or setup timezone preferences in your user account.

Time Position Orientation Groundspeed Altitude Reporting Facility
EDT Latitude Longitude Course Direction KTS MPH feet Rate Location/Type
12:10PM 43.5597 -96.6797 86° East 239 275 4,100  Level Minneapolis Center
12:11PM 43.7811 -96.3611 51° Northeast  Level FlightAware Approximate
12:11PM 43.6072 -96.6019 50° Northeast 255 293 6,400  Level Minneapolis Center
12:12PM 43.8523 -96.2348 53° Northeast  Level FlightAware Approximate
12:12PM 43.6653 -96.5022 51° Northeast 270 311 9,500  Level Minneapolis Center
12:13PM 43.9222 -96.1069 52° Northeast  Level FlightAware Approximate
12:13PM 43.7169 -96.4164 50° Northeast 280 322 11,600  Level Minneapolis Center
12:14PM 43.9935 -95.9804 52° Northeast  Level FlightAware Approximate
12:14PM 43.7700 -96.3272 50° Northeast 293 337 13,800  Level Minneapolis Center
12:16PM 43.8761 -96.1486 50° Northeast 306 352 17,000 1,020 Climbing Minneapolis Center
12:17PM 43.9417 -96.0114 56° Northeast 363 418 17,100  Climbing Minneapolis Center
12:18PM 43.9972 -95.8794 60° Northeast 397 457 17,100  Level Minneapolis Center
12:19PM 44.0542 -95.7406 60° Northeast 415 478 17,100 -60 Level Minneapolis Center
12:20PM 44.1117 -95.6014 60° Northeast 418 481 17,000 -60 Descending Minneapolis Center
12:21PM 44.1828 -95.4314 60° Northeast 424 488 17,000  Level Minneapolis Center
12:22PM 44.2414 -95.2872 60° Northeast 428 493 17,000  Level Minneapolis Center
12:23PM 44.3006 -95.1442 60° Northeast 429 494 17,000  Level Minneapolis Center
12:24PM 44.3589 -94.9992 61° Northeast 429 494 17,000  Level Minneapolis Center
12:25PM 44.4172 -94.8542 61° Northeast 430 495 17,000  Level Minneapolis Center
12:26PM 44.4753 -94.7069 61° Northeast 432 497 17,100 -300 Climbing Minneapolis Center
12:27PM 44.5394 -94.5481 60° Northeast 433 498 16,500 -1,320 Descending Minneapolis Center
12:28PM 44.5975 -94.4025 61° Northeast 427 491 14,400 -1,980 Descending Minneapolis Center
12:29PM 44.6514 -94.2633 61° Northeast 407 468 12,400 -1,500 Descending Minneapolis Center
12:31PM 44.7156 -94.0583 66° East 411 473 11,000 -660 Descending Minneapolis Center
12:32PM 44.7483 -93.9097 73° East 398 458 11,000  Level Minneapolis Center
12:33PM 44.7814 -93.7617 72° East 395 455 11,000  Level Minneapolis Center
12:34PM 44.8142 -93.6125 73° East 395 455 11,000 -360 Level Minneapolis Center
12:35PM 44.8444 -93.4758 73° East 357 411 10,300 -960 Descending Minneapolis Center
12:36PM 44.8500 -93.3556 86° East 317 365 9,000 -1,140 Descending Minneapolis Center
12:37PM 44.8161 -93.2503 114° Southeast 288 331 8,000 -600 Descending Minneapolis Center
12:38PM 44.7867 -93.1528 113° Southeast 262 302 7,800 -1,380 Descending Minneapolis Center
12:39PM 44.7569 -93.0503 112° Southeast 248 285 5,200 -2,520 Descending Minneapolis Center